sensor_id;sensor_type;location;lat;lon;timestamp;P1;durP1;ratioP1;P2;durP2;ratioP2
30872;SDS011;17579;42.690;2.586;2023-01-31T00:01:17;8.32;;;5.05;;
30872;SDS011;17579;42.690;2.586;2023-01-31T00:03:45;6.63;;;4.80;;
30872;SDS011;17579;42.690;2.586;2023-01-31T00:06:14;6.20;;;4.32;;
30872;SDS011;17579;42.690;2.586;2023-01-31T00:08:45;4.50;;;3.72;;
30872;SDS011;17579;42.690;2.586;2023-01-31T00:11:12;4.50;;;3.92;;
30872;SDS011;17579;42.690;2.586;2023-01-31T00:13:39;6.68;;;4.57;;
30872;SDS011;17579;42.690;2.586;2023-01-31T00:16:06;5.22;;;3.95;;
30872;SDS011;17579;42.690;2.586;2023-01-31T00:18:33;7.43;;;4.50;;
30872;SDS011;17579;42.690;2.586;2023-01-31T00:21:07;6.40;;;4.90;;
30872;SDS011;17579;42.690;2.586;2023-01-31T00:23:38;5.10;;;3.97;;
30872;SDS011;17579;42.690;2.586;2023-01-31T00:26:09;6.07;;;4.38;;
30872;SDS011;17579;42.690;2.586;2023-01-31T00:28:36;4.85;;;4.35;;
30872;SDS011;17579;42.690;2.586;2023-01-31T00:31:03;6.00;;;4.55;;
30872;SDS011;17579;42.690;2.586;2023-01-31T00:33:28;5.63;;;4.35;;
30872;SDS011;17579;42.690;2.586;2023-01-31T00:35:54;5.07;;;4.10;;
30872;SDS011;17579;42.690;2.586;2023-01-31T00:38:19;5.97;;;3.88;;
30872;SDS011;17579;42.690;2.586;2023-01-31T00:40:51;5.53;;;4.45;;
30872;SDS011;17579;42.690;2.586;2023-01-31T00:43:17;7.05;;;4.40;;
30872;SDS011;17579;42.690;2.586;2023-01-31T00:45:43;6.68;;;4.30;;
30872;SDS011;17579;42.690;2.586;2023-01-31T00:48:08;4.15;;;3.53;;
30872;SDS011;17579;42.690;2.586;2023-01-31T00:50:34;5.68;;;3.30;;
30872;SDS011;17579;42.690;2.586;2023-01-31T00:53:00;5.07;;;3.88;;
30872;SDS011;17579;42.690;2.586;2023-01-31T00:55:26;9.30;;;4.30;;
30872;SDS011;17579;42.690;2.586;2023-01-31T00:57:51;5.82;;;3.95;;
30872;SDS011;17579;42.690;2.586;2023-01-31T01:00:17;4.53;;;3.83;;
30872;SDS011;17579;42.690;2.586;2023-01-31T01:02:43;4.38;;;3.60;;
30872;SDS011;17579;42.690;2.586;2023-01-31T01:05:08;5.53;;;3.42;;
30872;SDS011;17579;42.690;2.586;2023-01-31T01:07:34;3.75;;;3.17;;
30872;SDS011;17579;42.690;2.586;2023-01-31T01:10:00;4.95;;;3.33;;
30872;SDS011;17579;42.690;2.586;2023-01-31T01:12:26;3.35;;;2.90;;
30872;SDS011;17579;42.690;2.586;2023-01-31T01:14:52;3.70;;;3.28;;
30872;SDS011;17579;42.690;2.586;2023-01-31T01:17:17;4.00;;;2.83;;
30872;SDS011;17579;42.690;2.586;2023-01-31T01:19:43;4.78;;;3.28;;
30872;SDS011;17579;42.690;2.586;2023-01-31T01:22:08;3.78;;;2.92;;
30872;SDS011;17579;42.690;2.586;2023-01-31T01:24:34;3.97;;;3.13;;
30872;SDS011;17579;42.690;2.586;2023-01-31T01:26:59;3.92;;;3.15;;
30872;SDS011;17579;42.690;2.586;2023-01-31T01:29:25;3.92;;;3.10;;
30872;SDS011;17579;42.690;2.586;2023-01-31T01:31:51;4.07;;;2.80;;
30872;SDS011;17579;42.690;2.586;2023-01-31T01:34:16;3.45;;;2.92;;
30872;SDS011;17579;42.690;2.586;2023-01-31T01:36:42;4.60;;;3.45;;
30872;SDS011;17579;42.690;2.586;2023-01-31T01:39:09;3.30;;;3.00;;
30872;SDS011;17579;42.690;2.586;2023-01-31T01:41:36;3.55;;;2.95;;
30872;SDS011;17579;42.690;2.586;2023-01-31T01:44:04;6.50;;;3.47;;
30872;SDS011;17579;42.690;2.586;2023-01-31T01:47:00;3.45;;;3.00;;
30872;SDS011;17579;42.690;2.586;2023-01-31T01:49:33;3.50;;;3.15;;
30872;SDS011;17579;42.690;2.586;2023-01-31T01:52:02;3.58;;;2.80;;
30872;SDS011;17579;42.690;2.586;2023-01-31T01:54:34;4.10;;;3.28;;
30872;SDS011;17579;42.690;2.586;2023-01-31T01:57:06;3.78;;;2.97;;
30872;SDS011;17579;42.690;2.586;2023-01-31T01:59:34;4.47;;;3.22;;
30872;SDS011;17579;42.690;2.586;2023-01-31T02:02:07;3.72;;;2.70;;
30872;SDS011;17579;42.690;2.586;2023-01-31T02:04:35;3.75;;;3.00;;
30872;SDS011;17579;42.690;2.586;2023-01-31T02:07:03;4.88;;;3.17;;
30872;SDS011;17579;42.690;2.586;2023-01-31T02:09:33;4.05;;;3.35;;
30872;SDS011;17579;42.690;2.586;2023-01-31T02:12:08;4.05;;;3.22;;
30872;SDS011;17579;42.690;2.586;2023-01-31T02:14:36;3.60;;;2.80;;
30872;SDS011;17579;42.690;2.586;2023-01-31T02:17:01;5.45;;;3.10;;
30872;SDS011;17579;42.690;2.586;2023-01-31T02:22:30;4.43;;;2.63;;
30872;SDS011;17579;42.690;2.586;2023-01-31T02:25:16;2.83;;;2.45;;
30872;SDS011;17579;42.690;2.586;2023-01-31T02:34:24;2.47;;;2.08;;
30872;SDS011;17579;42.690;2.586;2023-01-31T02:40:07;3.55;;;2.55;;
30872;SDS011;17579;42.690;2.586;2023-01-31T02:45:53;2.30;;;2.10;;
30872;SDS011;17579;42.690;2.586;2023-01-31T02:48:45;2.38;;;2.17;;
30872;SDS011;17579;42.690;2.586;2023-01-31T02:51:21;3.08;;;2.15;;
30872;SDS011;17579;42.690;2.586;2023-01-31T02:54:00;2.45;;;2.25;;
30872;SDS011;17579;42.690;2.586;2023-01-31T02:56:36;3.05;;;2.00;;
30872;SDS011;17579;42.690;2.586;2023-01-31T02:59:15;2.40;;;2.17;;
30872;SDS011;17579;42.690;2.586;2023-01-31T03:01:57;2.53;;;2.22;;
30872;SDS011;17579;42.690;2.586;2023-01-31T03:04:28;2.97;;;2.20;;
30872;SDS011;17579;42.690;2.586;2023-01-31T03:07:00;1.92;;;1.73;;
30872;SDS011;17579;42.690;2.586;2023-01-31T03:09:33;2.05;;;1.80;;
30872;SDS011;17579;42.690;2.586;2023-01-31T03:12:21;2.53;;;2.17;;
30872;SDS011;17579;42.690;2.586;2023-01-31T03:15:06;2.00;;;1.80;;
30872;SDS011;17579;42.690;2.586;2023-01-31T03:20:31;3.08;;;2.35;;
30872;SDS011;17579;42.690;2.586;2023-01-31T03:23:07;3.40;;;2.55;;
30872;SDS011;17579;42.690;2.586;2023-01-31T03:25:36;2.97;;;2.67;;
30872;SDS011;17579;42.690;2.586;2023-01-31T03:28:04;2.88;;;2.45;;
30872;SDS011;17579;42.690;2.586;2023-01-31T03:33:16;2.60;;;2.35;;
30872;SDS011;17579;42.690;2.586;2023-01-31T03:35:50;2.97;;;2.40;;
30872;SDS011;17579;42.690;2.586;2023-01-31T03:38:23;3.03;;;2.53;;
30872;SDS011;17579;42.690;2.586;2023-01-31T03:41:09;4.15;;;2.97;;
30872;SDS011;17579;42.690;2.586;2023-01-31T03:43:45;4.30;;;2.60;;
30872;SDS011;17579;42.690;2.586;2023-01-31T03:46:21;4.38;;;2.80;;
30872;SDS011;17579;42.690;2.586;2023-01-31T03:48:58;3.60;;;2.70;;
30872;SDS011;17579;42.690;2.586;2023-01-31T03:51:28;4.03;;;2.58;;
30872;SDS011;17579;42.690;2.586;2023-01-31T03:54:01;4.65;;;2.67;;
30872;SDS011;17579;42.690;2.586;2023-01-31T03:56:32;2.60;;;2.40;;
30872;SDS011;17579;42.690;2.586;2023-01-31T03:59:02;4.10;;;2.38;;
30872;SDS011;17579;42.690;2.586;2023-01-31T04:01:34;3.80;;;2.40;;
30872;SDS011;17579;42.690;2.586;2023-01-31T04:06:53;2.58;;;2.30;;
30872;SDS011;17579;42.690;2.586;2023-01-31T04:09:19;2.65;;;1.90;;
30872;SDS011;17579;42.690;2.586;2023-01-31T04:11:48;2.20;;;1.98;;
30872;SDS011;17579;42.690;2.586;2023-01-31T04:14:14;2.13;;;1.92;;
30872;SDS011;17579;42.690;2.586;2023-01-31T04:16:40;2.72;;;2.00;;
30872;SDS011;17579;42.690;2.586;2023-01-31T04:19:06;3.00;;;2.40;;
30872;SDS011;17579;42.690;2.586;2023-01-31T04:21:32;2.30;;;1.95;;
30872;SDS011;17579;42.690;2.586;2023-01-31T04:23:58;2.72;;;2.00;;
30872;SDS011;17579;42.690;2.586;2023-01-31T04:26:23;2.35;;;2.00;;
30872;SDS011;17579;42.690;2.586;2023-01-31T04:28:49;4.00;;;2.03;;
30872;SDS011;17579;42.690;2.586;2023-01-31T04:31:15;2.15;;;1.80;;
30872;SDS011;17579;42.690;2.586;2023-01-31T04:33:41;2.50;;;1.65;;
30872;SDS011;17579;42.690;2.586;2023-01-31T04:36:06;2.50;;;1.80;;
30872;SDS011;17579;42.690;2.586;2023-01-31T04:38:32;1.45;;;1.35;;
30872;SDS011;17579;42.690;2.586;2023-01-31T04:40:58;1.88;;;1.42;;
30872;SDS011;17579;42.690;2.586;2023-01-31T04:43:24;1.27;;;1.17;;
30872;SDS011;17579;42.690;2.586;2023-01-31T04:45:49;1.48;;;1.20;;
30872;SDS011;17579;42.690;2.586;2023-01-31T04:48:15;2.42;;;1.60;;
30872;SDS011;17579;42.690;2.586;2023-01-31T04:50:41;2.00;;;1.40;;
30872;SDS011;17579;42.690;2.586;2023-01-31T04:53:06;1.50;;;1.30;;
30872;SDS011;17579;42.690;2.586;2023-01-31T04:55:33;1.80;;;1.50;;
30872;SDS011;17579;42.690;2.586;2023-01-31T04:57:59;1.30;;;1.20;;
30872;SDS011;17579;42.690;2.586;2023-01-31T05:00:25;0.95;;;0.90;;
30872;SDS011;17579;42.690;2.586;2023-01-31T05:02:51;1.50;;;1.20;;
30872;SDS011;17579;42.690;2.586;2023-01-31T05:05:17;1.60;;;1.10;;
30872;SDS011;17579;42.690;2.586;2023-01-31T05:07:43;1.20;;;1.10;;
30872;SDS011;17579;42.690;2.586;2023-01-31T05:10:09;1.15;;;1.05;;
30872;SDS011;17579;42.690;2.586;2023-01-31T05:12:35;1.33;;;1.13;;
30872;SDS011;17579;42.690;2.586;2023-01-31T05:15:01;1.58;;;0.90;;
30872;SDS011;17579;42.690;2.586;2023-01-31T05:17:27;1.30;;;1.20;;
30872;SDS011;17579;42.690;2.586;2023-01-31T05:19:57;0.98;;;0.98;;
30872;SDS011;17579;42.690;2.586;2023-01-31T05:22:23;1.20;;;0.93;;
30872;SDS011;17579;42.690;2.586;2023-01-31T05:24:49;1.00;;;0.93;;
30872;SDS011;17579;42.690;2.586;2023-01-31T05:27:16;2.58;;;1.08;;
30872;SDS011;17579;42.690;2.586;2023-01-31T05:29:42;2.17;;;1.35;;
30872;SDS011;17579;42.690;2.586;2023-01-31T05:32:09;1.52;;;1.40;;
30872;SDS011;17579;42.690;2.586;2023-01-31T05:34:34;1.52;;;1.30;;
30872;SDS011;17579;42.690;2.586;2023-01-31T05:37:00;1.90;;;1.48;;
30872;SDS011;17579;42.690;2.586;2023-01-31T05:39:26;2.42;;;1.02;;
30872;SDS011;17579;42.690;2.586;2023-01-31T05:41:52;1.58;;;1.40;;
30872;SDS011;17579;42.690;2.586;2023-01-31T05:44:18;1.85;;;1.50;;
30872;SDS011;17579;42.690;2.586;2023-01-31T05:46:45;3.20;;;1.60;;
30872;SDS011;17579;42.690;2.586;2023-01-31T05:49:11;1.50;;;1.40;;
30872;SDS011;17579;42.690;2.586;2023-01-31T05:51:37;1.98;;;1.63;;
30872;SDS011;17579;42.690;2.586;2023-01-31T05:54:03;1.58;;;1.30;;
30872;SDS011;17579;42.690;2.586;2023-01-31T05:56:29;3.00;;;1.45;;
30872;SDS011;17579;42.690;2.586;2023-01-31T05:58:55;1.73;;;1.52;;
30872;SDS011;17579;42.690;2.586;2023-01-31T06:01:22;2.88;;;1.70;;
30872;SDS011;17579;42.690;2.586;2023-01-31T06:03:49;2.03;;;1.50;;
30872;SDS011;17579;42.690;2.586;2023-01-31T06:06:15;1.60;;;1.40;;
30872;SDS011;17579;42.690;2.586;2023-01-31T06:08:41;2.13;;;1.67;;
30872;SDS011;17579;42.690;2.586;2023-01-31T06:11:08;1.20;;;1.10;;
30872;SDS011;17579;42.690;2.586;2023-01-31T06:13:38;1.85;;;1.15;;
30872;SDS011;17579;42.690;2.586;2023-01-31T06:16:05;1.23;;;1.13;;
30872;SDS011;17579;42.690;2.586;2023-01-31T06:18:31;1.10;;;1.00;;
30872;SDS011;17579;42.690;2.586;2023-01-31T06:20:57;1.50;;;1.08;;
30872;SDS011;17579;42.690;2.586;2023-01-31T06:23:23;1.20;;;1.10;;
30872;SDS011;17579;42.690;2.586;2023-01-31T06:25:49;1.00;;;1.00;;
30872;SDS011;17579;42.690;2.586;2023-01-31T06:28:16;1.17;;;0.75;;
30872;SDS011;17579;42.690;2.586;2023-01-31T06:30:42;0.82;;;0.80;;
30872;SDS011;17579;42.690;2.586;2023-01-31T06:33:08;0.88;;;0.77;;
30872;SDS011;17579;42.690;2.586;2023-01-31T06:35:34;0.65;;;0.65;;
30872;SDS011;17579;42.690;2.586;2023-01-31T06:38:00;0.75;;;0.75;;
30872;SDS011;17579;42.690;2.586;2023-01-31T06:40:26;0.80;;;0.73;;
30872;SDS011;17579;42.690;2.586;2023-01-31T06:42:51;0.55;;;0.50;;
30872;SDS011;17579;42.690;2.586;2023-01-31T06:45:17;0.60;;;0.60;;
30872;SDS011;17579;42.690;2.586;2023-01-31T06:47:45;0.50;;;0.50;;
30872;SDS011;17579;42.690;2.586;2023-01-31T06:50:11;0.40;;;0.40;;
30872;SDS011;17579;42.690;2.586;2023-01-31T06:52:38;0.40;;;0.40;;
30872;SDS011;17579;42.690;2.586;2023-01-31T06:55:04;0.90;;;0.40;;
30872;SDS011;17579;42.690;2.586;2023-01-31T06:57:30;0.40;;;0.40;;
30872;SDS011;17579;42.690;2.586;2023-01-31T06:59:56;0.40;;;0.40;;
30872;SDS011;17579;42.690;2.586;2023-01-31T07:02:21;0.70;;;0.52;;
30872;SDS011;17579;42.690;2.586;2023-01-31T07:04:47;0.50;;;0.50;;
30872;SDS011;17579;42.690;2.586;2023-01-31T07:07:13;5.68;;;0.63;;
30872;SDS011;17579;42.690;2.586;2023-01-31T07:09:38;1.48;;;0.40;;
30872;SDS011;17579;42.690;2.586;2023-01-31T07:12:04;0.30;;;0.30;;
30872;SDS011;17579;42.690;2.586;2023-01-31T07:14:29;0.30;;;0.30;;
30872;SDS011;17579;42.690;2.586;2023-01-31T07:16:55;0.68;;;0.40;;
30872;SDS011;17579;42.690;2.586;2023-01-31T07:19:21;2.50;;;0.40;;
30872;SDS011;17579;42.690;2.586;2023-01-31T07:21:47;0.40;;;0.40;;
30872;SDS011;17579;42.690;2.586;2023-01-31T07:24:16;0.40;;;0.40;;
30872;SDS011;17579;42.690;2.586;2023-01-31T07:26:41;0.38;;;0.38;;
30872;SDS011;17579;42.690;2.586;2023-01-31T07:29:08;0.38;;;0.35;;
30872;SDS011;17579;42.690;2.586;2023-01-31T07:31:34;2.65;;;0.30;;
30872;SDS011;17579;42.690;2.586;2023-01-31T07:33:59;1.17;;;0.30;;
30872;SDS011;17579;42.690;2.586;2023-01-31T07:36:25;0.10;;;0.10;;
30872;SDS011;17579;42.690;2.586;2023-01-31T07:38:55;0.20;;;0.17;;
30872;SDS011;17579;42.690;2.586;2023-01-31T07:41:23;0.25;;;0.25;;
30872;SDS011;17579;42.690;2.586;2023-01-31T07:43:49;0.17;;;0.17;;
30872;SDS011;17579;42.690;2.586;2023-01-31T07:46:15;0.10;;;0.10;;
30872;SDS011;17579;42.690;2.586;2023-01-31T07:48:41;0.05;;;0.05;;
30872;SDS011;17579;42.690;2.586;2023-01-31T07:51:07;0.10;;;0.10;;
30872;SDS011;17579;42.690;2.586;2023-01-31T07:53:33;0.20;;;0.20;;
30872;SDS011;17579;42.690;2.586;2023-01-31T07:56:10;0.10;;;0.10;;
30872;SDS011;17579;42.690;2.586;2023-01-31T07:58:38;0.08;;;0.08;;
30872;SDS011;17579;42.690;2.586;2023-01-31T08:01:05;0.43;;;0.10;;
30872;SDS011;17579;42.690;2.586;2023-01-31T08:03:43;0.10;;;0.10;;
30872;SDS011;17579;42.690;2.586;2023-01-31T08:06:09;0.00;;;0.00;;
30872;SDS011;17579;42.690;2.586;2023-01-31T08:08:37;0.20;;;0.20;;
30872;SDS011;17579;42.690;2.586;2023-01-31T08:11:03;0.10;;;0.10;;
30872;SDS011;17579;42.690;2.586;2023-01-31T08:13:30;0.10;;;0.10;;
30872;SDS011;17579;42.690;2.586;2023-01-31T08:15:56;0.08;;;0.08;;
30872;SDS011;17579;42.690;2.586;2023-01-31T08:18:22;0.10;;;0.03;;
30872;SDS011;17579;42.690;2.586;2023-01-31T08:20:48;0.00;;;0.00;;
30872;SDS011;17579;42.690;2.586;2023-01-31T08:23:13;0.00;;;0.00;;
30872;SDS011;17579;42.690;2.586;2023-01-31T08:25:39;0.05;;;0.05;;
30872;SDS011;17579;42.690;2.586;2023-01-31T08:28:05;0.05;;;0.05;;
30872;SDS011;17579;42.690;2.586;2023-01-31T08:30:30;0.00;;;0.00;;
30872;SDS011;17579;42.690;2.586;2023-01-31T08:32:56;0.10;;;0.05;;
30872;SDS011;17579;42.690;2.586;2023-01-31T08:35:23;0.20;;;0.10;;
30872;SDS011;17579;42.690;2.586;2023-01-31T08:37:49;0.00;;;0.00;;
30872;SDS011;17579;42.690;2.586;2023-01-31T08:40:15;0.10;;;0.10;;
30872;SDS011;17579;42.690;2.586;2023-01-31T08:42:41;0.00;;;0.00;;
30872;SDS011;17579;42.690;2.586;2023-01-31T08:45:07;0.00;;;0.00;;
30872;SDS011;17579;42.690;2.586;2023-01-31T08:47:33;0.10;;;0.10;;
30872;SDS011;17579;42.690;2.586;2023-01-31T08:49:58;0.10;;;0.10;;
30872;SDS011;17579;42.690;2.586;2023-01-31T08:52:24;1.48;;;0.10;;
30872;SDS011;17579;42.690;2.586;2023-01-31T08:54:50;0.10;;;0.10;;
30872;SDS011;17579;42.690;2.586;2023-01-31T08:57:16;0.10;;;0.10;;
30872;SDS011;17579;42.690;2.586;2023-01-31T08:59:41;0.10;;;0.10;;
30872;SDS011;17579;42.690;2.586;2023-01-31T09:02:08;0.00;;;0.00;;
30872;SDS011;17579;42.690;2.586;2023-01-31T09:04:35;0.22;;;0.22;;
30872;SDS011;17579;42.690;2.586;2023-01-31T09:07:00;0.10;;;0.10;;
30872;SDS011;17579;42.690;2.586;2023-01-31T09:09:26;0.10;;;0.10;;
30872;SDS011;17579;42.690;2.586;2023-01-31T09:11:51;0.00;;;0.00;;
30872;SDS011;17579;42.690;2.586;2023-01-31T09:14:17;0.00;;;0.00;;
30872;SDS011;17579;42.690;2.586;2023-01-31T09:16:42;0.20;;;0.20;;
30872;SDS011;17579;42.690;2.586;2023-01-31T09:19:10;0.00;;;0.00;;
30872;SDS011;17579;42.690;2.586;2023-01-31T09:21:36;0.00;;;0.00;;
30872;SDS011;17579;42.690;2.586;2023-01-31T09:24:02;0.85;;;0.10;;
30872;SDS011;17579;42.690;2.586;2023-01-31T09:26:28;0.55;;;0.28;;
30872;SDS011;17579;42.690;2.586;2023-01-31T09:28:54;1.35;;;0.10;;
30872;SDS011;17579;42.690;2.586;2023-01-31T09:31:22;0.30;;;0.15;;
30872;SDS011;17579;42.690;2.586;2023-01-31T09:33:47;0.38;;;0.10;;
30872;SDS011;17579;42.690;2.586;2023-01-31T09:36:14;0.20;;;0.10;;
30872;SDS011;17579;42.690;2.586;2023-01-31T09:38:42;0.00;;;0.00;;
30872;SDS011;17579;42.690;2.586;2023-01-31T09:41:13;0.10;;;0.10;;
30872;SDS011;17579;42.690;2.586;2023-01-31T09:43:44;0.47;;;0.10;;
30872;SDS011;17579;42.690;2.586;2023-01-31T09:46:17;0.10;;;0.10;;
30872;SDS011;17579;42.690;2.586;2023-01-31T09:48:48;0.00;;;0.00;;
30872;SDS011;17579;42.690;2.586;2023-01-31T09:51:17;0.03;;;0.03;;
30872;SDS011;17579;42.690;2.586;2023-01-31T09:53:43;0.00;;;0.00;;
30872;SDS011;17579;42.690;2.586;2023-01-31T09:59:03;0.35;;;0.05;;
30872;SDS011;17579;42.690;2.586;2023-01-31T10:04:29;0.20;;;0.20;;
30872;SDS011;17579;42.690;2.586;2023-01-31T10:07:19;0.38;;;0.10;;
30872;SDS011;17579;42.690;2.586;2023-01-31T10:09:48;0.00;;;0.00;;
30872;SDS011;17579;42.690;2.586;2023-01-31T10:12:21;0.00;;;0.00;;
30872;SDS011;17579;42.690;2.586;2023-01-31T10:14:54;0.00;;;0.00;;
30872;SDS011;17579;42.690;2.586;2023-01-31T10:17:24;0.47;;;0.10;;
30872;SDS011;17579;42.690;2.586;2023-01-31T10:19:56;0.10;;;0.10;;
30872;SDS011;17579;42.690;2.586;2023-01-31T10:22:30;0.15;;;0.10;;
30872;SDS011;17579;42.690;2.586;2023-01-31T10:25:07;0.10;;;0.10;;
30872;SDS011;17579;42.690;2.586;2023-01-31T10:27:39;0.10;;;0.10;;
30872;SDS011;17579;42.690;2.586;2023-01-31T10:30:13;0.10;;;0.10;;
30872;SDS011;17579;42.690;2.586;2023-01-31T10:32:46;0.22;;;0.20;;
30872;SDS011;17579;42.690;2.586;2023-01-31T10:35:20;0.20;;;0.20;;
30872;SDS011;17579;42.690;2.586;2023-01-31T10:37:52;0.17;;;0.15;;
30872;SDS011;17579;42.690;2.586;2023-01-31T10:40:22;0.10;;;0.10;;
30872;SDS011;17579;42.690;2.586;2023-01-31T10:42:56;0.00;;;0.00;;
30872;SDS011;17579;42.690;2.586;2023-01-31T10:45:31;0.10;;;0.10;;
30872;SDS011;17579;42.690;2.586;2023-01-31T10:48:01;0.20;;;0.13;;
30872;SDS011;17579;42.690;2.586;2023-01-31T10:50:40;1.63;;;0.20;;
30872;SDS011;17579;42.690;2.586;2023-01-31T10:53:49;0.10;;;0.10;;
30872;SDS011;17579;42.690;2.586;2023-01-31T10:58:58;0.20;;;0.20;;
30872;SDS011;17579;42.690;2.586;2023-01-31T11:01:26;0.10;;;0.10;;
30872;SDS011;17579;42.690;2.586;2023-01-31T11:03:53;0.10;;;0.10;;
30872;SDS011;17579;42.690;2.586;2023-01-31T11:06:20;0.20;;;0.20;;
30872;SDS011;17579;42.690;2.586;2023-01-31T11:08:48;0.10;;;0.10;;
30872;SDS011;17579;42.690;2.586;2023-01-31T11:11:18;0.10;;;0.10;;
30872;SDS011;17579;42.690;2.586;2023-01-31T11:16:13;0.20;;;0.20;;
30872;SDS011;17579;42.690;2.586;2023-01-31T11:21:05;0.20;;;0.20;;
30872;SDS011;17579;42.690;2.586;2023-01-31T11:23:31;0.10;;;0.10;;
30872;SDS011;17579;42.690;2.586;2023-01-31T11:25:59;0.20;;;0.20;;
30872;SDS011;17579;42.690;2.586;2023-01-31T11:28:28;0.30;;;0.30;;
30872;SDS011;17579;42.690;2.586;2023-01-31T11:30:59;0.22;;;0.10;;
30872;SDS011;17579;42.690;2.586;2023-01-31T11:35:54;0.10;;;0.10;;
30872;SDS011;17579;42.690;2.586;2023-01-31T11:38:21;0.30;;;0.20;;
30872;SDS011;17579;42.690;2.586;2023-01-31T11:40:47;0.45;;;0.32;;
30872;SDS011;17579;42.690;2.586;2023-01-31T11:45:56;1.38;;;0.30;;
30872;SDS011;17579;42.690;2.586;2023-01-31T11:48:27;0.20;;;0.20;;
30872;SDS011;17579;42.690;2.586;2023-01-31T11:50:58;0.40;;;0.20;;
30872;SDS011;17579;42.690;2.586;2023-01-31T11:53:28;0.20;;;0.20;;
30872;SDS011;17579;42.690;2.586;2023-01-31T12:01:18;0.30;;;0.30;;
30872;SDS011;17579;42.690;2.586;2023-01-31T12:03:47;0.20;;;0.20;;
30872;SDS011;17579;42.690;2.586;2023-01-31T12:06:26;0.40;;;0.30;;
30872;SDS011;17579;42.690;2.586;2023-01-31T12:08:53;2.47;;;0.40;;
30872;SDS011;17579;42.690;2.586;2023-01-31T12:13:52;0.32;;;0.32;;
30872;SDS011;17579;42.690;2.586;2023-01-31T12:16:25;0.57;;;0.40;;
30872;SDS011;17579;42.690;2.586;2023-01-31T12:21:26;0.30;;;0.30;;
30872;SDS011;17579;42.690;2.586;2023-01-31T12:26:58;0.40;;;0.30;;
30872;SDS011;17579;42.690;2.586;2023-01-31T12:37:29;0.25;;;0.22;;
30872;SDS011;17579;42.690;2.586;2023-01-31T12:40:21;0.32;;;0.32;;
30872;SDS011;17579;42.690;2.586;2023-01-31T12:43:14;0.38;;;0.30;;
30872;SDS011;17579;42.690;2.586;2023-01-31T12:45:46;0.30;;;0.30;;
30872;SDS011;17579;42.690;2.586;2023-01-31T12:48:27;0.43;;;0.40;;
30872;SDS011;17579;42.690;2.586;2023-01-31T12:51:24;0.75;;;0.45;;
30872;SDS011;17579;42.690;2.586;2023-01-31T12:54:03;0.73;;;0.30;;
30872;SDS011;17579;42.690;2.586;2023-01-31T12:56:36;0.30;;;0.30;;
30872;SDS011;17579;42.690;2.586;2023-01-31T13:01:41;0.40;;;0.40;;
30872;SDS011;17579;42.690;2.586;2023-01-31T13:07:08;0.50;;;0.47;;
30872;SDS011;17579;42.690;2.586;2023-01-31T13:09:39;0.35;;;0.35;;
30872;SDS011;17579;42.690;2.586;2023-01-31T13:12:06;0.30;;;0.30;;
30872;SDS011;17579;42.690;2.586;2023-01-31T13:14:36;0.40;;;0.40;;
30872;SDS011;17579;42.690;2.586;2023-01-31T13:17:08;0.65;;;0.35;;
30872;SDS011;17579;42.690;2.586;2023-01-31T13:19:39;0.40;;;0.40;;
30872;SDS011;17579;42.690;2.586;2023-01-31T13:22:12;0.50;;;0.30;;
30872;SDS011;17579;42.690;2.586;2023-01-31T13:24:40;0.50;;;0.50;;
30872;SDS011;17579;42.690;2.586;2023-01-31T13:29:59;0.38;;;0.38;;
30872;SDS011;17579;42.690;2.586;2023-01-31T13:35:08;0.40;;;0.40;;
30872;SDS011;17579;42.690;2.586;2023-01-31T13:37:42;0.40;;;0.40;;
30872;SDS011;17579;42.690;2.586;2023-01-31T13:42:37;0.38;;;0.30;;
30872;SDS011;17579;42.690;2.586;2023-01-31T13:45:04;0.50;;;0.50;;
30872;SDS011;17579;42.690;2.586;2023-01-31T13:47:35;0.47;;;0.47;;
30872;SDS011;17579;42.690;2.586;2023-01-31T13:55:07;0.35;;;0.35;;
30872;SDS011;17579;42.690;2.586;2023-01-31T13:57:40;0.40;;;0.40;;
30872;SDS011;17579;42.690;2.586;2023-01-31T14:02:37;0.60;;;0.50;;
30872;SDS011;17579;42.690;2.586;2023-01-31T14:05:04;0.38;;;0.38;;
30872;SDS011;17579;42.690;2.586;2023-01-31T14:08:24;0.50;;;0.50;;
30872;SDS011;17579;42.690;2.586;2023-01-31T14:10:36;0.60;;;0.40;;
30872;SDS011;17579;42.690;2.586;2023-01-31T14:13:18;0.43;;;0.43;;
30872;SDS011;17579;42.690;2.586;2023-01-31T14:15:50;0.50;;;0.50;;
30872;SDS011;17579;42.690;2.586;2023-01-31T14:20:43;0.40;;;0.40;;
30872;SDS011;17579;42.690;2.586;2023-01-31T14:25:52;0.40;;;0.40;;
30872;SDS011;17579;42.690;2.586;2023-01-31T14:28:17;0.63;;;0.60;;
30872;SDS011;17579;42.690;2.586;2023-01-31T14:30:43;0.75;;;0.75;;
30872;SDS011;17579;42.690;2.586;2023-01-31T14:33:15;0.65;;;0.65;;
30872;SDS011;17579;42.690;2.586;2023-01-31T14:35:54;0.50;;;0.50;;
30872;SDS011;17579;42.690;2.586;2023-01-31T14:51:12;0.50;;;0.50;;
30872;SDS011;17579;42.690;2.586;2023-01-31T14:54:06;0.35;;;0.35;;
30872;SDS011;17579;42.690;2.586;2023-01-31T14:56:46;0.50;;;0.50;;
30872;SDS011;17579;42.690;2.586;2023-01-31T14:59:21;0.57;;;0.50;;
30872;SDS011;17579;42.690;2.586;2023-01-31T15:01:54;0.25;;;0.25;;
30872;SDS011;17579;42.690;2.586;2023-01-31T15:04:21;0.88;;;0.60;;
30872;SDS011;17579;42.690;2.586;2023-01-31T15:06:49;0.60;;;0.60;;
30872;SDS011;17579;42.690;2.586;2023-01-31T15:12:00;0.40;;;0.40;;
30872;SDS011;17579;42.690;2.586;2023-01-31T15:17:11;0.75;;;0.55;;
30872;SDS011;17579;42.690;2.586;2023-01-31T15:19:43;0.45;;;0.45;;
30872;SDS011;17579;42.690;2.586;2023-01-31T15:22:12;0.45;;;0.45;;
30872;SDS011;17579;42.690;2.586;2023-01-31T15:24:43;1.55;;;0.32;;
30872;SDS011;17579;42.690;2.586;2023-01-31T15:27:13;0.60;;;0.60;;
30872;SDS011;17579;42.690;2.586;2023-01-31T15:32:34;1.30;;;0.60;;
30872;SDS011;17579;42.690;2.586;2023-01-31T15:35:06;0.50;;;0.50;;
30872;SDS011;17579;42.690;2.586;2023-01-31T15:37:40;0.32;;;0.32;;
30872;SDS011;17579;42.690;2.586;2023-01-31T15:42:40;0.70;;;0.52;;
30872;SDS011;17579;42.690;2.586;2023-01-31T15:47:32;0.57;;;0.57;;
30872;SDS011;17579;42.690;2.586;2023-01-31T15:49:58;0.40;;;0.40;;
30872;SDS011;17579;42.690;2.586;2023-01-31T15:52:23;0.50;;;0.50;;
30872;SDS011;17579;42.690;2.586;2023-01-31T15:54:50;0.50;;;0.50;;
30872;SDS011;17579;42.690;2.586;2023-01-31T15:57:17;0.60;;;0.60;;
30872;SDS011;17579;42.690;2.586;2023-01-31T15:59:46;0.88;;;0.60;;
30872;SDS011;17579;42.690;2.586;2023-01-31T16:02:16;0.73;;;0.50;;
30872;SDS011;17579;42.690;2.586;2023-01-31T16:04:46;0.63;;;0.63;;
30872;SDS011;17579;42.690;2.586;2023-01-31T16:09:40;0.60;;;0.60;;
30872;SDS011;17579;42.690;2.586;2023-01-31T16:12:07;0.60;;;0.60;;
30872;SDS011;17579;42.690;2.586;2023-01-31T16:14:34;0.57;;;0.57;;
30872;SDS011;17579;42.690;2.586;2023-01-31T16:17:01;1.38;;;0.45;;
30872;SDS011;17579;42.690;2.586;2023-01-31T16:19:28;0.60;;;0.60;;
30872;SDS011;17579;42.690;2.586;2023-01-31T16:21:57;0.40;;;0.40;;
30872;SDS011;17579;42.690;2.586;2023-01-31T16:24:23;0.60;;;0.55;;
30872;SDS011;17579;42.690;2.586;2023-01-31T16:26:52;0.68;;;0.68;;
30872;SDS011;17579;42.690;2.586;2023-01-31T16:29:36;0.40;;;0.40;;
30872;SDS011;17579;42.690;2.586;2023-01-31T16:34:34;0.50;;;0.50;;
30872;SDS011;17579;42.690;2.586;2023-01-31T16:37:05;0.55;;;0.55;;
30872;SDS011;17579;42.690;2.586;2023-01-31T16:39:40;0.30;;;0.30;;
30872;SDS011;17579;42.690;2.586;2023-01-31T16:44:50;0.45;;;0.45;;
30872;SDS011;17579;42.690;2.586;2023-01-31T16:49:44;0.57;;;0.57;;
30872;SDS011;17579;42.690;2.586;2023-01-31T16:52:17;1.08;;;0.50;;
30872;SDS011;17579;42.690;2.586;2023-01-31T16:54:54;0.50;;;0.50;;
30872;SDS011;17579;42.690;2.586;2023-01-31T17:02:42;0.75;;;0.55;;
30872;SDS011;17579;42.690;2.586;2023-01-31T17:07:42;0.63;;;0.60;;
30872;SDS011;17579;42.690;2.586;2023-01-31T17:10:11;0.52;;;0.52;;
30872;SDS011;17579;42.690;2.586;2023-01-31T17:12:46;0.60;;;0.50;;
30872;SDS011;17579;42.690;2.586;2023-01-31T17:15:13;0.57;;;0.57;;